Time;durP1;ratioP1;P1;durP2;ratioP2;P2;SDS_P1;SDS_P2;PMS_P1;PMS_P2;Temp;Humidity;BMP_temperature;BMP_pressure;BME280_temperature;BME280_humidity;BME280_pressure;Samples;Min_cycle;Max_cycle;Signal;HPM_P1;HPM_P2
2021/06/13 00:01:37;;;;;;;3.53;2.40;;;18.90;58.80;;;;;;5006566;28;20045;-73
2021/06/13 00:04:04;;;;;;;3.50;2.67;;;18.90;58.90;;;;;;5006316;28;20037;-72
2021/06/13 00:06:30;;;;;;;4.32;3.05;;;18.90;59.10;;;;;;5006672;28;20026;-72
2021/06/13 00:08:56;;;;;;;4.45;2.63;;;18.90;59.30;;;;;;5006631;28;20560;-72
2021/06/13 00:11:23;;;;;;;3.20;2.70;;;18.80;59.00;;;;;;5005940;28;20034;-72
2021/06/13 00:13:50;;;;;;;3.80;2.67;;;18.80;59.10;;;;;;4988909;28;20069;-73
2021/06/13 00:16:18;;;;;;;3.25;2.95;;;18.80;59.10;;;;;;5005082;28;20029;-73
2021/06/13 00:18:45;;;;;;;3.78;3.03;;;18.80;59.30;;;;;;5005980;28;20046;-72
2021/06/13 00:21:13;;;;;;;2.63;2.38;;;18.70;59.20;;;;;;5006161;28;20032;-72
2021/06/13 00:23:41;;;;;;;2.55;2.33;;;18.70;59.20;;;;;;5006532;28;20486;-72
2021/06/13 00:26:07;;;;;;;4.55;2.83;;;18.60;59.10;;;;;;5006423;28;20029;-72
2021/06/13 00:28:34;;;;;;;4.40;3.00;;;18.60;59.20;;;;;;5006255;28;20030;-73
2021/06/13 00:31:00;;;;;;;3.65;2.83;;;18.60;59.30;;;;;;5006863;28;20291;-72
2021/06/13 00:33:26;;;;;;;3.38;3.08;;;18.60;59.40;;;;;;5005782;28;20042;-73
2021/06/13 00:35:52;;;;;;;2.90;2.60;;;18.50;59.30;;;;;;5005201;28;20038;-73
2021/06/13 00:38:18;;;;;;;4.22;3.28;;;18.50;59.40;;;;;;5005080;28;20041;-72
2021/06/13 00:40:45;;;;;;;2.80;2.50;;;18.50;59.50;;;;;;5004990;28;20103;-72
2021/06/13 00:43:11;;;;;;;2.90;2.38;;;18.40;59.40;;;;;;5006145;28;20438;-73
2021/06/13 00:45:37;;;;;;;3.05;2.33;;;18.40;59.50;;;;;;5006450;28;20117;-72
2021/06/13 00:48:03;;;;;;;3.13;2.50;;;18.30;59.40;;;;;;4984997;28;20055;-73
2021/06/13 00:50:41;;;;;;;4.35;3.28;;;18.30;59.40;;;;;;5001274;28;20023;-73
2021/06/13 00:53:09;;;;;;;2.92;2.65;;;18.30;59.60;;;;;;5001731;28;20073;-72
2021/06/13 00:55:40;;;;;;;3.42;2.90;;;18.30;59.50;;;;;;5001550;28;20040;-73
2021/06/13 00:58:07;;;;;;;3.45;2.65;;;18.20;59.50;;;;;;4985336;28;20026;-73
2021/06/13 01:00:34;;;;;;;4.07;2.75;;;18.20;59.50;;;;;;4986560;28;20494;-72
2021/06/13 01:03:01;;;;;;;2.58;2.05;;;18.20;59.60;;;;;;5001696;28;20033;-72
2021/06/13 01:05:29;;;;;;;3.38;2.25;;;18.10;59.40;;;;;;4985228;28;20038;-72
2021/06/13 01:08:22;;;;;;;3.95;2.47;;;18.10;59.50;;;;;;4985903;28;20065;-73
2021/06/13 01:11:07;;;;;;;3.70;2.88;;;18.00;59.50;;;;;;4986709;28;20504;-74
2021/06/13 01:14:31;;;;;;;2.90;2.70;;;18.10;59.60;;;;;;4984854;28;20054;-73
2021/06/13 01:17:13;;;;;;;3.03;2.55;;;18.00;59.50;;;;;;4910423;29;20059;-73
2021/06/13 01:19:50;;;;;;;4.18;2.47;;;18.00;59.60;;;;;;4909834;29;20345;-73
2021/06/13 01:22:32;;;;;;;4.40;2.97;;;17.90;59.50;;;;;;4970299;28;20039;-73
2021/06/13 01:25:23;;;;;;;3.20;2.38;;;17.90;59.50;;;;;;4999959;28;20526;-73
2021/06/13 01:28:23;;;;;;;2.90;2.58;;;17.90;59.70;;;;;;4985511;28;20037;-73
2021/06/13 01:30:53;;;;;;;4.50;3.40;;;17.90;59.80;;;;;;4992417;22;20074;-74
2021/06/13 01:33:21;;;;;;;3.42;2.72;;;17.80;59.60;;;;;;5018866;28;20393;-74
2021/06/13 01:35:50;;;;;;;2.83;2.60;;;17.80;59.60;;;;;;5013910;28;20473;-75
2021/06/13 01:38:19;;;;;;;3.63;2.53;;;17.70;59.50;;;;;;5010978;28;20544;-74
2021/06/13 01:40:46;;;;;;;3.10;2.80;;;17.70;59.60;;;;;;5011005;28;20026;-74
2021/06/13 01:43:15;;;;;;;2.28;2.00;;;17.70;59.70;;;;;;5026516;28;20038;-74
2021/06/13 01:45:43;;;;;;;3.33;2.45;;;17.60;59.60;;;;;;5025449;22;20064;-85
2021/06/13 01:48:12;;;;;;;3.03;2.75;;;17.60;59.70;;;;;;5088859;28;20400;-85
2021/06/13 01:50:41;;;;;;;2.88;2.47;;;17.60;59.80;;;;;;5058675;28;20068;-83
2021/06/13 01:53:10;;;;;;;3.75;2.75;;;17.50;59.60;;;;;;5113390;28;20036;-84
2021/06/13 01:55:37;;;;;;;2.60;2.40;;;17.50;59.70;;;;;;5097178;28;20032;-85
2021/06/13 01:58:08;;;;;;;3.60;2.40;;;17.50;59.70;;;;;;5114622;28;20021;-85
2021/06/13 02:00:49;;;;;;;3.45;2.60;;;17.50;59.80;;;;;;5096508;28;20036;-84
2021/06/13 02:03:20;;;;;;;2.88;2.67;;;17.40;59.60;;;;;;5096866;28;20104;-85
2021/06/13 02:05:55;;;;;;;3.50;2.53;;;17.40;59.70;;;;;;5074949;28;20033;-83
2021/06/13 02:08:23;;;;;;;3.42;2.65;;;17.40;59.70;;;;;;5075624;28;20025;-84
2021/06/13 02:10:59;;;;;;;3.25;2.58;;;17.30;59.60;;;;;;5059205;28;20046;-84
2021/06/13 02:13:28;;;;;;;3.97;3.13;;;17.30;59.70;;;;;;5071687;28;20036;-83
2021/06/13 02:15:58;;;;;;;3.53;2.53;;;17.30;59.70;;;;;;5077689;28;20507;-83
2021/06/13 02:18:28;;;;;;;3.67;2.83;;;17.30;59.80;;;;;;5094331;28;20052;-84
2021/06/13 02:21:00;;;;;;;3.15;2.35;;;17.30;59.90;;;;;;5095494;28;20035;-86
2021/06/13 02:23:29;;;;;;;3.22;2.90;;;17.20;59.80;;;;;;5094643;28;20077;-87
2021/06/13 02:25:58;;;;;;;6.07;2.90;;;17.20;59.80;;;;;;5094599;28;20116;-86
2021/06/13 02:28:26;;;;;;;4.65;2.42;;;17.20;59.80;;;;;;5094381;28;20028;-87
2021/06/13 02:30:53;;;;;;;5.45;2.92;;;17.10;59.70;;;;;;5094129;28;20514;-84
2021/06/13 02:33:20;;;;;;;3.33;2.60;;;17.10;59.70;;;;;;5093719;28;20036;-87
2021/06/13 02:35:53;;;;;;;3.25;2.47;;;17.10;59.90;;;;;;5092662;28;20024;-83
2021/06/13 02:38:20;;;;;;;3.42;2.72;;;17.10;59.90;;;;;;5093322;28;20479;-86
2021/06/13 02:40:50;;;;;;;2.90;2.65;;;17.10;60.00;;;;;;5095325;28;20039;-85
2021/06/13 02:43:17;;;;;;;3.25;2.70;;;17.10;60.00;;;;;;5093877;28;20541;-84
2021/06/13 02:45:48;;;;;;;3.42;2.80;;;17.00;59.90;;;;;;5077116;28;20021;-86
2021/06/13 02:48:16;;;;;;;3.22;2.53;;;17.00;59.90;;;;;;5093727;28;20060;-86
2021/06/13 02:50:44;;;;;;;4.28;2.83;;;17.00;60.00;;;;;;5076793;28;20368;-84
2021/06/13 02:53:26;;;;;;;3.60;2.58;;;17.00;60.10;;;;;;5093890;28;20066;-83
2021/06/13 02:56:08;;;;;;;3.20;2.50;;;16.90;60.00;;;;;;5093216;28;20092;-89
2021/06/13 02:58:47;;;;;;;3.55;2.85;;;16.90;60.00;;;;;;5094038;28;20114;-88
2021/06/13 03:01:19;;;;;;;3.25;2.95;;;16.90;60.00;;;;;;5093836;28;20130;-86
2021/06/13 03:03:46;;;;;;;3.80;2.25;;;16.80;59.80;;;;;;5094168;28;20028;-83
2021/06/13 03:06:17;;;;;;;2.88;2.47;;;16.80;59.90;;;;;;5076863;28;20028;-85
2021/06/13 03:08:44;;;;;;;3.83;2.47;;;16.80;59.90;;;;;;5092508;28;20032;-85
2021/06/13 03:11:12;;;;;;;3.30;2.38;;;16.80;60.00;;;;;;5092492;28;20115;-83
2021/06/13 03:13:41;;;;;;;3.45;2.53;;;16.80;60.00;;;;;;5095234;28;20059;-86
2021/06/13 03:16:09;;;;;;;2.95;2.20;;;16.80;60.10;;;;;;5093879;28;20016;-85
2021/06/13 03:18:36;;;;;;;4.05;2.50;;;16.70;59.90;;;;;;5093628;28;20063;-86
2021/06/13 03:21:05;;;;;;;2.63;2.40;;;16.70;60.00;;;;;;5093244;28;20172;-86
2021/06/13 03:23:34;;;;;;;2.75;2.45;;;16.70;60.00;;;;;;5093459;28;20032;-85
2021/06/13 03:26:02;;;;;;;3.10;2.75;;;16.70;60.00;;;;;;5092851;28;20123;-85
2021/06/13 03:28:33;;;;;;;3.05;2.53;;;16.60;59.90;;;;;;5092223;28;20028;-84
2021/06/13 03:31:01;;;;;;;3.10;2.38;;;16.60;60.00;;;;;;5092483;28;20475;-85
2021/06/13 03:33:30;;;;;;;2.70;2.40;;;16.60;60.00;;;;;;5092590;28;20032;-84
2021/06/13 03:35:58;;;;;;;3.33;2.90;;;16.50;59.90;;;;;;5075344;28;20078;-84
2021/06/13 03:38:29;;;;;;;4.30;2.10;;;16.60;60.10;;;;;;5091713;28;20024;-82
2021/06/13 03:40:58;;;;;;;2.50;2.30;;;16.60;60.10;;;;;;5091202;28;20038;-81
2021/06/13 03:43:25;;;;;;;2.85;2.50;;;16.50;60.00;;;;;;5092931;28;20032;-83
2021/06/13 03:45:52;;;;;;;3.33;2.75;;;16.50;60.00;;;;;;5090621;28;20032;-83
2021/06/13 03:48:20;;;;;;;2.55;2.35;;;16.50;60.10;;;;;;5091532;28;20483;-84
2021/06/13 03:50:47;;;;;;;2.60;2.38;;;16.40;59.90;;;;;;5091784;28;20034;-84
2021/06/13 03:53:14;;;;;;;2.67;2.47;;;16.40;60.00;;;;;;5091643;28;20233;-87
2021/06/13 03:55:41;;;;;;;2.35;2.10;;;16.40;60.00;;;;;;5091601;28;20051;-87
2021/06/13 03:58:09;;;;;;;3.83;2.45;;;16.40;60.00;;;;;;5091979;28;20360;-86
2021/06/13 04:00:36;;;;;;;3.30;2.60;;;16.40;60.10;;;;;;5092687;28;20101;-84
2021/06/13 04:03:05;;;;;;;2.50;2.30;;;16.30;59.90;;;;;;5092288;28;20028;-87
2021/06/13 04:05:40;;;;;;;2.30;2.10;;;16.30;60.00;;;;;;5078169;28;20028;-86
2021/06/13 04:08:11;;;;;;;2.75;2.42;;;16.30;60.00;;;;;;5096999;28;20050;-86
2021/06/13 04:10:39;;;;;;;3.10;2.50;;;16.30;60.00;;;;;;5098511;28;20028;-88
2021/06/13 04:13:06;;;;;;;2.83;2.53;;;16.30;60.00;;;;;;5096404;28;20051;-87
2021/06/13 04:15:33;;;;;;;2.40;2.20;;;16.20;59.90;;;;;;5097470;28;20024;-85
2021/06/13 04:17:59;;;;;;;2.80;2.45;;;16.30;60.10;;;;;;5093823;28;20411;-86
2021/06/13 04:20:26;;;;;;;2.40;2.20;;;16.30;60.10;;;;;;5092084;28;20027;-84
2021/06/13 04:22:52;;;;;;;2.72;2.30;;;16.20;60.00;;;;;;5092746;28;20085;-88
2021/06/13 04:25:20;;;;;;;3.13;2.35;;;16.20;60.00;;;;;;5094654;28;20040;-86
2021/06/13 04:27:52;;;;;;;2.47;2.28;;;16.20;60.00;;;;;;5092517;28;20085;-85
2021/06/13 04:30:19;;;;;;;3.22;2.83;;;16.20;60.00;;;;;;5091972;28;20032;-84
2021/06/13 04:32:45;;;;;;;4.10;2.42;;;16.20;60.00;;;;;;5093387;28;20063;-88
2021/06/13 04:35:11;;;;;;;2.95;2.50;;;16.20;60.00;;;;;;5091935;28;20036;-88
2021/06/13 04:37:37;;;;;;;2.65;1.98;;;16.20;60.60;;;;;;5074473;28;20028;-88
2021/06/13 04:40:04;;;;;;;3.05;2.33;;;16.20;60.10;;;;;;5090936;28;20187;-85
2021/06/13 04:42:30;;;;;;;4.22;2.72;;;16.20;60.10;;;;;;5091335;28;20094;-84
2021/06/13 04:44:58;;;;;;;2.40;2.20;;;16.20;60.10;;;;;;5092360;28;20492;-89
2021/06/13 04:47:24;;;;;;;4.25;2.83;;;16.20;60.20;;;;;;5089590;28;20044;-88
2021/06/13 04:49:54;;;;;;;2.25;2.15;;;16.20;60.20;;;;;;5089282;28;20024;-85
2021/06/13 04:52:22;;;;;;;2.80;2.47;;;16.20;60.30;;;;;;5088511;28;20027;-84
2021/06/13 04:54:54;;;;;;;2.17;2.08;;;16.10;60.60;;;;;;5088956;28;20036;-86
2021/06/13 04:57:39;;;;;;;3.75;2.53;;;16.20;60.30;;;;;;5090354;28;20070;-84
2021/06/13 05:00:06;;;;;;;2.55;2.35;;;16.20;60.30;;;;;;5092013;28;20028;-83
2021/06/13 05:02:33;;;;;;;1.98;1.88;;;16.10;60.00;;;;;;5090202;28;20509;-88
2021/06/13 05:04:59;;;;;;;4.15;2.45;;;16.20;60.20;;;;;;5091891;28;20494;-89
2021/06/13 05:07:25;;;;;;;2.70;2.50;;;16.20;60.20;;;;;;5092177;28;20028;-87
2021/06/13 05:09:52;;;;;;;2.80;2.60;;;16.10;60.00;;;;;;5071225;28;20056;-87
2021/06/13 05:12:17;;;;;;;2.20;2.00;;;16.20;60.20;;;;;;5073334;28;20043;-85
2021/06/13 05:14:43;;;;;;;3.15;2.38;;;16.10;60.10;;;;;;5072228;28;20036;-84
2021/06/13 05:17:10;;;;;;;2.88;2.22;;;16.20;60.20;;;;;;5087954;28;20034;-84
2021/06/13 05:19:36;;;;;;;2.65;2.35;;;16.10;60.00;;;;;;5095785;28;20020;-84
2021/06/13 05:22:06;;;;;;;4.30;2.60;;;16.20;60.20;;;;;;5095727;28;20060;-84
2021/06/13 05:24:32;;;;;;;2.80;2.30;;;16.20;60.30;;;;;;5095004;28;20101;-85
2021/06/13 05:26:58;;;;;;;2.55;2.30;;;16.20;60.20;;;;;;5085001;28;20483;-84
2021/06/13 05:29:24;;;;;;;2.72;2.30;;;16.20;60.20;;;;;;5072690;28;20048;-84
2021/06/13 05:31:50;;;;;;;2.85;2.22;;;16.30;60.40;;;;;;5074714;28;20073;-89
2021/06/13 05:34:16;;;;;;;2.58;2.38;;;16.30;60.30;;;;;;5073478;28;20055;-85
2021/06/13 05:36:42;;;;;;;4.93;2.50;;;16.30;60.40;;;;;;5071011;28;20024;-85
2021/06/13 05:39:08;;;;;;;2.40;2.20;;;16.40;60.50;;;;;;5071651;28;20045;-84
2021/06/13 05:41:34;;;;;;;2.55;2.33;;;16.40;60.50;;;;;;5069752;28;20028;-83
2021/06/13 05:44:02;;;;;;;2.88;2.25;;;16.40;60.60;;;;;;5071520;28;20047;-83
2021/06/13 05:46:29;;;;;;;2.67;2.47;;;16.40;60.50;;;;;;5069643;28;20049;-83
2021/06/13 05:48:55;;;;;;;3.00;2.33;;;16.40;60.60;;;;;;5062789;28;20119;-84
2021/06/13 05:51:23;;;;;;;2.63;2.40;;;16.50;60.70;;;;;;5052971;28;20123;-84
2021/06/13 05:53:49;;;;;;;3.25;2.75;;;16.50;60.70;;;;;;5069696;28;20403;-84
2021/06/13 05:56:15;;;;;;;2.55;2.22;;;16.60;60.90;;;;;;5069314;28;20029;-83
2021/06/13 05:58:41;;;;;;;2.55;2.35;;;16.70;61.10;;;;;;5069586;28;20089;-86
2021/06/13 06:01:07;;;;;;;3.33;2.65;;;16.70;61.10;;;;;;5070126;28;20170;-86
2021/06/13 06:03:33;;;;;;;3.30;2.85;;;16.80;61.20;;;;;;5070909;28;20035;-86
2021/06/13 06:05:59;;;;;;;2.30;2.10;;;16.90;61.40;;;;;;5053182;28;20040;-83
2021/06/13 06:09:09;;;;;;;3.20;2.58;;;17.00;61.60;;;;;;5057200;28;20225;-82
2021/06/13 06:21:10;;;;;;;2.90;2.50;;;17.60;62.10;;;;;;5070027;28;20126;-80
2021/06/13 06:23:36;;;;;;;5.78;3.90;;;17.90;62.20;;;;;;5063946;28;20055;-80
2021/06/13 06:26:02;;;;;;;6.80;3.42;;;18.10;62.40;;;;;;5070962;28;20027;-80
2021/06/13 06:28:53;;;;;;;7.10;3.63;;;18.20;62.70;;;;;;5065513;28;20077;-82
2021/06/13 06:32:06;;;;;;;6.20;3.40;;;18.40;63.10;;;;;;5070943;28;20024;-81
2021/06/13 06:34:33;;;;;;;3.60;3.22;;;18.70;63.40;;;;;;5067742;28;20131;-81
2021/06/13 06:37:03;;;;;;;5.55;3.30;;;18.90;63.30;;;;;;5050851;28;20425;-80
2021/06/13 06:39:36;;;;;;;4.05;3.15;;;19.10;63.30;;;;;;5068699;28;20043;-81
2021/06/13 06:42:02;;;;;;;5.68;2.78;;;19.30;63.30;;;;;;5069543;28;20024;-80
2021/06/13 06:44:28;;;;;;;4.68;3.38;;;19.60;63.50;;;;;;5069158;28;20059;-83
2021/06/13 06:46:54;;;;;;;4.30;3.08;;;19.80;63.40;;;;;;5068491;28;20052;-82
2021/06/13 06:49:20;;;;;;;6.40;3.97;;;20.10;63.40;;;;;;5084713;28;20465;-82
2021/06/13 06:51:46;;;;;;;5.20;3.33;;;20.40;63.20;;;;;;5087546;28;20364;-82
2021/06/13 06:54:12;;;;;;;5.97;3.35;;;20.70;63.00;;;;;;5088925;28;20039;-83
2021/06/13 06:56:38;;;;;;;4.18;3.10;;;21.10;63.00;;;;;;5088908;28;20028;-85
2021/06/13 06:59:04;;;;;;;4.53;2.88;;;21.40;62.70;;;;;;5089754;28;20404;-85
2021/06/13 07:01:30;;;;;;;5.03;2.53;;;21.70;62.30;;;;;;5087536;28;20024;-84
2021/06/13 07:03:56;;;;;;;4.75;3.15;;;21.90;61.80;;;;;;5087649;28;20036;-85
2021/06/13 07:06:22;;;;;;;6.25;2.95;;;22.20;61.50;;;;;;5088903;28;20087;-86
2021/06/13 07:08:48;;;;;;;5.25;2.75;;;22.40;61.20;;;;;;5070937;28;20030;-86
2021/06/13 07:11:14;;;;;;;3.45;2.08;;;22.70;60.90;;;;;;5089396;28;20192;-85
2021/06/13 07:13:40;;;;;;;6.43;2.70;;;22.90;60.70;;;;;;5073639;28;20562;-86
2021/06/13 07:16:06;;;;;;;4.30;2.65;;;23.20;60.50;;;;;;5051096;28;20035;-85
2021/06/13 07:18:32;;;;;;;3.97;3.05;;;23.40;60.00;;;;;;5066915;28;20032;-86
2021/06/13 07:20:58;;;;;;;2.80;2.22;;;23.70;59.80;;;;;;5067066;28;20151;-86
2021/06/13 07:23:24;;;;;;;3.25;2.58;;;23.90;59.40;;;;;;5058438;28;20116;-85
2021/06/13 07:25:50;;;;;;;3.42;2.35;;;24.20;59.20;;;;;;5067110;28;20345;-86
2021/06/13 07:28:17;;;;;;;5.57;2.13;;;24.40;59.10;;;;;;5079933;28;20049;-91
2021/06/13 07:30:43;;;;;;;7.70;2.10;;;24.60;58.70;;;;;;5067429;28;20471;-86
2021/06/13 07:33:10;;;;;;;3.75;2.30;;;24.90;58.60;;;;;;5075218;28;20090;-86
2021/06/13 07:35:36;;;;;;;2.80;1.90;;;25.10;58.00;;;;;;5086886;28;20032;-86
2021/06/13 07:38:02;;;;;;;2.65;2.28;;;25.30;57.50;;;;;;5086421;28;20368;-87
2021/06/13 07:40:30;;;;;;;3.60;2.38;;;25.50;57.10;;;;;;5086712;28;20032;-84
2021/06/13 07:42:56;;;;;;;4.95;2.42;;;25.80;56.50;;;;;;5086601;28;20032;-86
2021/06/13 07:45:22;;;;;;;3.28;2.35;;;26.00;55.90;;;;;;5070257;28;20089;-85
2021/06/13 07:47:48;;;;;;;2.97;2.10;;;26.20;55.20;;;;;;5069121;28;20056;-85
2021/06/13 07:50:17;;;;;;;3.88;2.20;;;26.50;54.60;;;;;;5088405;28;20043;-85
2021/06/13 07:52:44;;;;;;;3.40;2.25;;;26.80;54.00;;;;;;5069714;28;20470;-85
2021/06/13 07:55:11;;;;;;;2.42;2.13;;;27.00;53.40;;;;;;5086956;28;20020;-85
2021/06/13 07:57:39;;;;;;;3.00;1.92;;;27.30;52.80;;;;;;5087367;28;20036;-85
2021/06/13 08:00:10;;;;;;;4.47;2.53;;;27.50;52.00;;;;;;5086172;28;20028;-84
2021/06/13 08:02:37;;;;;;;5.57;2.53;;;27.80;51.20;;;;;;5086263;28;20032;-84
2021/06/13 08:05:11;;;;;;;4.97;2.10;;;28.10;50.70;;;;;;5069651;28;20059;-85
2021/06/13 08:07:38;;;;;;;5.68;2.67;;;28.40;50.20;;;;;;5069926;28;20490;-81
2021/06/13 08:10:05;;;;;;;3.58;2.33;;;28.70;50.00;;;;;;5087808;28;20032;-85
2021/06/13 08:12:33;;;;;;;6.25;3.28;;;29.00;49.00;;;;;;5086910;28;20094;-83
2021/06/13 08:14:59;;;;;;;5.10;2.83;;;29.30;48.30;;;;;;5085780;28;20024;-84
2021/06/13 08:17:25;;;;;;;5.18;2.67;;;29.60;47.70;;;;;;5069179;28;20032;-83
2021/06/13 08:19:52;;;;;;;5.43;2.97;;;29.90;47.00;;;;;;5068988;28;20032;-84
2021/06/13 08:22:18;;;;;;;10.32;4.55;;;30.20;46.30;;;;;;5069299;28;20046;-87
2021/06/13 08:24:44;;;;;;;7.10;3.58;;;30.50;45.80;;;;;;5085951;28;20093;-85
2021/06/13 08:27:10;;;;;;;8.07;4.75;;;30.80;45.10;;;;;;5086993;28;20047;-85
2021/06/13 08:29:36;;;;;;;11.32;4.45;;;31.10;44.50;;;;;;5085859;28;20024;-88
2021/06/13 08:32:02;;;;;;;44.15;39.60;;;31.40;44.00;;;;;;5086563;28;20436;-86
2021/06/13 08:34:28;;;;;;;15.90;13.15;;;31.60;43.50;;;;;;5049066;28;20505;-89
2021/06/13 08:36:54;;;;;;;11.90;7.95;;;31.80;42.90;;;;;;5049978;28;20529;-85
2021/06/13 08:43:27;;;;;;;4.68;3.08;;;32.20;42.00;;;;;;5067974;28;20054;-85
2021/06/13 08:46:07;;;;;;;4.68;3.17;;;32.50;41.80;;;;;;5066835;28;20119;-84
2021/06/13 08:49:00;;;;;;;5.40;3.47;;;32.60;41.10;;;;;;5053969;28;20044;-88
2021/06/13 08:51:28;;;;;;;5.63;2.85;;;32.60;40.80;;;;;;5051086;28;20028;-86
2021/06/13 08:53:55;;;;;;;7.25;3.45;;;32.70;40.60;;;;;;5051406;28;20044;-88
2021/06/13 08:56:21;;;;;;;15.18;8.05;;;32.60;40.50;;;;;;5048492;28;20036;-82
2021/06/13 08:58:49;;;;;;;9.00;6.20;;;32.50;40.40;;;;;;5062185;28;20063;-90
2021/06/13 09:01:15;;;;;;;5.30;3.70;;;32.40;40.30;;;;;;5070222;28;20028;-79
2021/06/13 09:03:44;;;;;;;4.63;2.95;;;32.20;40.40;;;;;;5066899;28;20079;-79
2021/06/13 09:06:12;;;;;;;7.30;3.63;;;32.00;40.90;;;;;;5082629;28;20062;-82
2021/06/13 09:08:40;;;;;;;4.40;2.72;;;31.60;41.40;;;;;;5067159;28;20028;-80
2021/06/13 09:11:23;;;;;;;5.60;3.17;;;31.20;42.10;;;;;;5053201;28;20075;-81
2021/06/13 09:13:49;;;;;;;4.30;2.53;;;30.70;42.80;;;;;;5072873;28;20043;-84
2021/06/13 09:16:16;;;;;;;5.05;2.80;;;30.50;43.60;;;;;;5049149;28;20025;-83
2021/06/13 09:18:44;;;;;;;6.38;2.63;;;30.30;44.00;;;;;;5059557;28;20040;-79
2021/06/13 09:21:14;;;;;;;4.97;2.60;;;30.10;44.00;;;;;;5069476;28;20194;-84
2021/06/13 09:23:42;;;;;;;4.43;2.60;;;30.10;44.00;;;;;;5073244;28;20522;-81
2021/06/13 09:26:17;;;;;;;6.40;2.40;;;30.10;43.90;;;;;;5065927;28;20025;-83
2021/06/13 09:28:49;;;;;;;5.47;2.72;;;30.10;43.80;;;;;;5066559;28;20079;-84
2021/06/13 09:31:30;;;;;;;5.05;3.13;;;30.10;43.80;;;;;;5066176;28;20468;-79
2021/06/13 09:33:58;;;;;;;3.22;2.55;;;30.00;43.90;;;;;;5066490;28;20037;-78
2021/06/13 09:36:30;;;;;;;4.07;2.70;;;30.00;44.00;;;;;;5067176;28;20033;-80
2021/06/13 09:39:01;;;;;;;4.90;2.55;;;29.80;44.20;;;;;;5079719;28;20487;-81
2021/06/13 09:41:28;;;;;;;5.20;3.20;;;29.70;44.50;;;;;;5086452;28;20426;-83
2021/06/13 09:43:56;;;;;;;7.75;3.00;;;29.60;44.70;;;;;;5087622;28;20035;-79
2021/06/13 09:46:28;;;;;;;7.28;2.67;;;29.40;45.00;;;;;;5089664;28;20071;-84
2021/06/13 09:48:55;;;;;;;4.05;3.05;;;29.30;45.50;;;;;;5078188;28;20028;-79
2021/06/13 09:51:27;;;;;;;7.32;3.25;;;29.20;45.70;;;;;;5069038;28;20130;-78
2021/06/13 09:53:58;;;;;;;9.27;5.88;;;29.10;45.90;;;;;;5069127;28;20072;-78
2021/06/13 09:56:41;;;;;;;7.65;4.43;;;29.00;46.00;;;;;;5050396;28;20055;-78
2021/06/13 09:59:09;;;;;;;7.57;4.15;;;29.00;46.20;;;;;;5067699;28;20047;-79
2021/06/13 10:01:56;;;;;;;8.75;4.70;;;29.00;46.30;;;;;;5068782;28;20044;-79
2021/06/13 10:04:23;;;;;;;5.07;3.45;;;29.00;46.40;;;;;;5087858;28;20508;-84
2021/06/13 10:06:52;;;;;;;6.97;3.53;;;29.00;46.50;;;;;;5089736;28;20081;-86
2021/06/13 10:09:20;;;;;;;4.38;3.00;;;29.00;46.50;;;;;;5076466;28;20481;-84
2021/06/13 10:11:50;;;;;;;5.40;3.05;;;29.00;46.40;;;;;;5076807;28;20140;-84
2021/06/13 10:14:18;;;;;;;7.00;3.38;;;29.00;46.40;;;;;;5072784;28;20044;-88
2021/06/13 10:16:50;;;;;;;6.25;3.25;;;29.00;47.00;;;;;;5068682;28;20048;-80
2021/06/13 10:19:22;;;;;;;4.88;3.15;;;29.00;46.40;;;;;;5084501;28;20032;-81
2021/06/13 10:21:58;;;;;;;5.95;2.88;;;29.00;46.40;;;;;;5089264;28;20295;-82
2021/06/13 10:24:28;;;;;;;6.78;3.15;;;29.10;46.60;;;;;;5072124;28;20036;-78
2021/06/13 10:27:01;;;;;;;4.25;2.78;;;29.10;46.70;;;;;;5072298;28;20026;-87
2021/06/13 10:29:32;;;;;;;8.13;3.47;;;29.10;46.60;;;;;;5055418;28;20404;-85
2021/06/13 10:32:01;;;;;;;6.78;3.53;;;29.10;46.70;;;;;;5051127;28;20122;-82
2021/06/13 10:34:30;;;;;;;5.45;3.08;;;29.20;46.80;;;;;;5069448;28;20379;-83
2021/06/13 10:37:01;;;;;;;5.82;3.00;;;29.30;46.90;;;;;;5070672;28;20024;-80
2021/06/13 10:39:30;;;;;;;7.45;3.72;;;29.30;46.80;;;;;;5071114;28;20032;-81
2021/06/13 10:41:57;;;;;;;6.70;3.20;;;29.30;46.70;;;;;;5071232;28;20038;-81
2021/06/13 10:44:26;;;;;;;5.50;3.10;;;29.40;46.80;;;;;;5070607;28;20537;-80
2021/06/13 10:46:56;;;;;;;6.47;3.75;;;29.40;46.90;;;;;;5070317;28;20105;-83
2021/06/13 10:49:30;;;;;;;5.75;3.42;;;29.40;46.80;;;;;;5070682;28;20070;-85
2021/06/13 10:52:16;;;;;;;6.05;3.17;;;29.40;47.00;;;;;;5070251;28;20054;-79
2021/06/13 10:55:09;;;;;;;5.60;4.28;;;29.40;47.10;;;;;;5070610;28;20126;-80
2021/06/13 10:57:46;;;;;;;9.00;4.07;;;29.50;47.20;;;;;;5068725;28;20486;-82
2021/06/13 11:00:21;;;;;;;4.45;3.05;;;29.60;47.30;;;;;;5070708;28;20028;-85
2021/06/13 11:02:55;;;;;;;6.45;3.97;;;29.70;47.30;;;;;;5087202;28;20024;-80
2021/06/13 11:05:45;;;;;;;7.15;4.28;;;29.80;47.30;;;;;;5086808;28;20036;-82
2021/06/13 11:08:12;;;;;;;9.20;6.43;;;29.90;47.10;;;;;;5070237;28;20081;-82
2021/06/13 11:10:41;;;;;;;5.93;3.95;;;30.00;47.20;;;;;;5086084;28;20122;-84
2021/06/13 11:21:22;;;;;;;4.25;3.20;;;30.20;46.90;;;;;;5026495;28;20399;-84
2021/06/13 11:23:54;;;;;;;5.07;3.53;;;30.40;47.00;;;;;;5002943;28;20034;-82
2021/06/13 11:26:32;;;;;;;6.50;3.92;;;30.50;46.70;;;;;;5034477;28;20036;-81
2021/06/13 11:28:58;;;;;;;5.05;3.88;;;30.50;46.50;;;;;;5057340;28;20509;-82
2021/06/13 11:31:25;;;;;;;7.15;3.83;;;30.60;46.40;;;;;;5066765;28;20296;-82
2021/06/13 11:33:54;;;;;;;7.35;3.53;;;30.60;46.30;;;;;;5067303;28;20225;-82
2021/06/13 11:36:22;;;;;;;5.85;3.30;;;30.70;46.00;;;;;;5067439;28;20025;-83
2021/06/13 11:39:16;;;;;;;7.30;3.90;;;30.70;46.20;;;;;;5067822;28;20549;-87
2021/06/13 11:41:44;;;;;;;10.73;4.00;;;30.70;46.00;;;;;;5049858;28;20037;-86
2021/06/13 11:44:13;;;;;;;9.55;3.90;;;30.50;46.20;;;;;;5066299;28;20062;-86
2021/06/13 11:46:44;;;;;;;5.13;3.80;;;30.30;46.50;;;;;;5067078;28;20182;-87
2021/06/13 11:49:15;;;;;;;5.18;3.30;;;30.20;46.60;;;;;;5050902;28;20189;-83
2021/06/13 11:51:53;;;;;;;6.70;4.00;;;30.30;46.70;;;;;;5060544;28;20134;-83
2021/06/13 11:54:36;;;;;;;5.70;3.50;;;30.30;46.70;;;;;;5088343;28;20082;-84
2021/06/13 11:57:04;;;;;;;4.75;3.58;;;30.50;46.80;;;;;;5090434;28;20387;-84
2021/06/13 11:59:30;;;;;;;8.25;3.97;;;30.60;46.70;;;;;;5071716;28;20036;-84
2021/06/13 12:01:58;;;;;;;6.38;3.85;;;30.70;46.70;;;;;;5069803;28;20051;-88
2021/06/13 12:05:15;;;;;;;8.63;3.63;;;30.70;46.40;;;;;;5069801;28;20505;-87
2021/06/13 12:11:50;;;;;;;7.65;4.60;;;30.90;46.20;;;;;;5087794;28;20040;-87
2021/06/13 12:14:28;;;;;;;6.65;5.95;;;31.00;45.80;;;;;;5070158;28;20130;-84
2021/06/13 12:17:22;;;;;;;11.98;5.43;;;31.10;45.60;;;;;;5087425;28;20032;-90
2021/06/13 12:19:52;;;;;;;6.70;5.03;;;31.10;45.60;;;;;;5053646;28;20029;-90
2021/06/13 12:22:29;;;;;;;7.82;5.65;;;31.20;45.70;;;;;;5067372;28;20025;-86
2021/06/13 12:27:42;;;;;;;9.48;4.30;;;31.20;45.70;;;;;;5068164;28;20024;-88
2021/06/13 12:30:14;;;;;;;5.82;4.20;;;31.30;45.70;;;;;;5050073;28;20032;-86
2021/06/13 12:32:42;;;;;;;5.25;3.83;;;31.30;45.70;;;;;;5049685;28;20040;-87
2021/06/13 12:35:13;;;;;;;7.82;3.72;;;31.40;45.60;;;;;;5049939;28;20032;-88
2021/06/13 12:38:23;;;;;;;6.35;3.53;;;31.40;45.50;;;;;;5050434;28;20040;-87
2021/06/13 12:55:26;;;;;;;9.88;3.90;;;31.80;45.60;;;;;;5021949;28;20479;-86
2021/06/13 13:26:35;;;;;;;6.03;5.53;;;31.90;48.30;;;;;;5048620;28;20374;-86
2021/06/13 13:30:10;;;;;;;7.47;5.20;;;32.10;48.40;;;;;;4974625;28;20038;-85
2021/06/13 13:32:58;;;;;;;7.88;5.53;;;32.20;48.30;;;;;;4986725;28;20130;-84
2021/06/13 13:35:33;;;;;;;8.25;5.70;;;32.40;48.40;;;;;;5042519;28;20071;-83
2021/06/13 13:38:05;;;;;;;6.72;6.05;;;32.50;48.50;;;;;;5069434;28;20040;-84
2021/06/13 13:40:31;;;;;;;6.97;5.18;;;32.50;48.40;;;;;;5063570;28;20040;-83
2021/06/13 13:43:00;;;;;;;5.75;5.20;;;32.60;48.40;;;;;;5092211;28;20027;-87
2021/06/13 13:45:27;;;;;;;6.63;4.90;;;32.60;48.40;;;;;;5076367;28;20054;-85
2021/06/13 13:48:05;;;;;;;5.53;4.63;;;32.70;48.40;;;;;;5076966;28;20031;-85
2021/06/13 13:50:35;;;;;;;6.80;4.68;;;32.80;48.40;;;;;;5077536;28;20488;-85
2021/06/13 13:53:21;;;;;;;5.78;4.80;;;32.80;48.30;;;;;;5078432;28;20115;-89
2021/06/13 14:04:24;;;;;;;5.72;5.05;;;33.00;48.30;;;;;;5093229;28;20028;-86
2021/06/13 14:06:54;;;;;;;5.47;4.85;;;33.10;48.30;;;;;;5076805;28;20157;-85
2021/06/13 14:09:45;;;;;;;6.18;4.50;;;33.10;48.20;;;;;;5077754;28;20031;-85
2021/06/13 14:12:13;;;;;;;5.43;4.38;;;33.20;48.30;;;;;;5093214;28;20161;-85
2021/06/13 14:14:39;;;;;;;5.47;4.55;;;33.20;48.20;;;;;;5092971;28;20130;-82
2021/06/13 14:17:05;;;;;;;5.78;4.20;;;33.30;48.20;;;;;;5076487;28;20027;-86
2021/06/13 14:19:31;;;;;;;5.07;4.00;;;33.30;48.10;;;;;;5092368;28;20438;-84
2021/06/13 14:21:57;;;;;;;6.40;4.45;;;33.30;48.00;;;;;;5110320;28;20067;-84
2021/06/13 14:24:23;;;;;;;5.15;4.45;;;33.40;48.00;;;;;;5073688;28;20505;-84